Luthersville, Georgia
Current Conditions -  °F | °C
As of 1:35 AM on Tuesday 21 Oct 2014 (Local Time) from KCCO Reporting Station
Clear Clear  
Wind Chill: 59°   Ceiling: Unl
Heat Index: 59°   Visibility: 10mi
Dew Point: 53°   Wind: 5mph
Humidity: 79%   Direction: 330°NNW
Pressure: 30.02"   Gusts: NA
Location:  33.21°N, 84.74°W
Report Text: KCCO 210535Z AUTO 33004KT 10SM CLR 15/11 A3002 RMK AO2 T01510114
Loading
Personal Weather Stations






























Interactive Weather Map
Tropical Storm Tracking
New forecast layout! Learn more

10-Day Weather Forecast

Advertisements
Track Severe Weather on mobile